Terminal Aerodrome Forecast
Issued by NWS

Home | Current Version | Previous Version | Text Only | Print | Product List | Glossary On
Versions: 1 2 3 4 5 6 7 8 9 10 11 12 13 14 15 16 17 18 19 20 21 22 23 24
429
FTUS43 KDLH 170109 AAB
TAFBRD
TAF AMD
KBRD 170109Z 1701/1724 05007KT 2SM RA BR BKN005 OVC050
     FM170500 04004KT 4SM SHRA BR OVC008
     FM170600 03004KT 3SM SHRA BR OVC008
     FM171600 34009KT P6SM VCSH OVC008
     FM171800 33010KT P6SM OVC010
     FM172300 34010KT P6SM SCT025=

USA.gov is the U.S. government's official web portal to all federal, state and local government web resources and services.